createdAt,value
2022-12-18T00:03:13.035Z,83.11
2022-12-18T00:08:23.357Z,83.11
2022-12-18T00:13:33.541Z,83.13
2022-12-18T00:18:43.958Z,83.25
2022-12-18T00:23:55.528Z,83.31
2022-12-18T00:29:08.562Z,83.26
2022-12-18T00:34:18.917Z,83.10
2022-12-18T00:39:28.669Z,82.99
2022-12-18T00:44:38.387Z,83.17
2022-12-18T00:49:48.254Z,83.30
2022-12-18T00:55:00.694Z,83.31
2022-12-18T01:00:19.875Z,83.42
2022-12-18T01:05:30.184Z,83.56
2022-12-18T01:10:42.507Z,83.55
2022-12-18T01:15:55.730Z,83.51
2022-12-18T01:21:10.924Z,83.39
2022-12-18T01:26:22.474Z,83.44
2022-12-18T01:31:35.858Z,83.58
2022-12-18T01:36:46.318Z,83.53
2022-12-18T01:42:05.333Z,83.53
2022-12-18T01:47:20.967Z,83.70
2022-12-18T01:52:34.206Z,83.69
2022-12-18T01:57:44.672Z,83.67
2022-12-18T02:02:55.724Z,83.43
2022-12-18T02:08:15.883Z,83.43
2022-12-18T02:13:38.483Z,83.14
2022-12-18T02:18:54.703Z,82.76
2022-12-18T02:24:23.854Z,82.53
2022-12-18T02:29:40.700Z,82.63
2022-12-18T02:34:53.325Z,82.78
2022-12-18T02:40:05.977Z,83.16
2022-12-18T02:45:16.461Z,83.29
2022-12-18T02:50:37.464Z,83.29
2022-12-18T02:56:01.479Z,83.30
2022-12-18T03:01:19.531Z,83.31
2022-12-18T03:06:34.992Z,83.46
2022-12-18T03:12:14.808Z,83.44
2022-12-18T03:17:29.455Z,83.48
2022-12-18T03:22:43.191Z,83.60
2022-12-18T03:27:59.547Z,83.51
2022-12-18T03:33:20.795Z,83.54
2022-12-18T03:38:30.714Z,83.41
2022-12-18T03:43:51.979Z,83.28
2022-12-18T03:49:14.188Z,83.39
2022-12-18T03:54:26.249Z,83.56
2022-12-18T03:59:37.713Z,83.64
2022-12-18T04:04:50.388Z,83.57
2022-12-18T04:10:03.794Z,83.90
2022-12-18T04:15:16.006Z,84.11
2022-12-18T04:20:26.003Z,84.04
2022-12-18T04:25:35.820Z,84.17
2022-12-18T04:30:45.769Z,84.15
2022-12-18T04:35:55.535Z,84.10
2022-12-18T04:41:05.327Z,84.14
2022-12-18T04:46:15.511Z,84.11
2022-12-18T04:51:26.793Z,83.91
2022-12-18T04:56:37.683Z,83.83
2022-12-18T05:01:47.509Z,83.96
2022-12-18T05:06:58.712Z,83.79
2022-12-18T05:12:09.435Z,83.78
2022-12-18T05:17:19.302Z,83.79
2022-12-18T05:22:29.015Z,83.97
2022-12-18T05:27:38.829Z,83.99
2022-12-18T05:32:49.091Z,84.23
2022-12-18T05:37:59.097Z,84.26
2022-12-18T05:43:09.475Z,84.15
2022-12-18T05:48:19.911Z,84.44
2022-12-18T05:53:29.715Z,84.51
2022-12-18T05:58:39.761Z,84.51
2022-12-18T06:03:50.869Z,84.60
2022-12-18T06:09:02.582Z,84.43
2022-12-18T06:14:13.801Z,84.22
2022-12-18T06:19:23.474Z,84.44
2022-12-18T06:24:34.378Z,84.36
2022-12-18T06:29:44.150Z,84.38
2022-12-18T06:34:54.284Z,84.46
2022-12-18T06:40:04.042Z,84.63
2022-12-18T06:45:15.162Z,84.71
2022-12-18T06:50:25.411Z,84.82
2022-12-18T06:55:35.320Z,84.65
2022-12-18T07:00:45.152Z,84.61
2022-12-18T07:05:55.510Z,84.54
2022-12-18T07:11:07.388Z,84.56
2022-12-18T07:16:24.653Z,84.57
2022-12-18T07:21:35.627Z,84.25
2022-12-18T07:26:47.975Z,84.22
2022-12-18T07:31:58.222Z,84.14
2022-12-18T07:37:08.111Z,84.03
2022-12-18T07:42:33.262Z,84.07
2022-12-18T07:47:43.845Z,83.91
2022-12-18T07:52:53.765Z,83.97
2022-12-18T07:58:06.855Z,83.90
2022-12-18T08:03:16.743Z,83.64
2022-12-18T08:08:26.555Z,83.56
2022-12-18T08:13:36.437Z,83.42
2022-12-18T08:18:46.546Z,83.28
2022-12-18T08:23:58.313Z,83.47
2022-12-18T08:29:08.267Z,83.57
2022-12-18T08:34:18.178Z,83.44
2022-12-18T08:39:27.941Z,83.22
2022-12-18T08:44:40.448Z,83.04
2022-12-18T08:49:50.235Z,82.95
2022-12-18T08:55:00.019Z,82.62
2022-12-18T09:00:13.065Z,82.68
2022-12-18T09:05:23.068Z,82.29
2022-12-18T09:10:33.257Z,82.03
2022-12-18T09:15:48.060Z,82.06
2022-12-18T09:20:58.069Z,82.05
2022-12-18T09:26:08.183Z,81.96
2022-12-18T09:31:20.132Z,81.78
2022-12-18T09:36:30.099Z,81.83
2022-12-18T09:41:51.834Z,81.61
2022-12-18T09:47:15.823Z,81.22
2022-12-18T09:52:32.278Z,80.72
2022-12-18T10:08:04.960Z,80.61
2022-12-18T10:13:32.127Z,80.50
2022-12-18T10:19:09.959Z,80.45
2022-12-18T10:24:28.505Z,80.10
2022-12-18T10:29:38.545Z,80.46
2022-12-18T10:34:58.276Z,79.78
2022-12-18T10:40:22.277Z,80.07
2022-12-18T10:45:33.003Z,79.92
2022-12-18T10:51:10.468Z,79.86
2022-12-18T10:56:25.026Z,79.82
2022-12-18T11:01:51.068Z,79.64
2022-12-18T11:07:05.885Z,79.75
2022-12-18T11:12:27.320Z,79.64
2022-12-18T11:17:40.403Z,79.60
2022-12-18T11:23:03.715Z,79.18
2022-12-18T11:28:37.502Z,79.39
2022-12-18T11:34:12.255Z,79.44
2022-12-18T11:39:33.945Z,79.49
2022-12-18T11:44:52.760Z,79.35
2022-12-18T11:50:22.058Z,79.11
2022-12-18T11:55:44.381Z,78.61
2022-12-18T12:01:08.859Z,78.76
2022-12-18T12:06:27.822Z,79.03
2022-12-18T12:11:59.109Z,79.06
2022-12-18T12:17:22.674Z,79.31
2022-12-18T12:22:47.696Z,79.01
2022-12-18T12:28:16.152Z,79.12
2022-12-18T12:33:43.685Z,79.25
2022-12-18T12:39:01.122Z,79.13
2022-12-18T12:44:19.850Z,78.99
2022-12-18T12:49:39.071Z,79.14
2022-12-18T12:54:52.301Z,79.26
2022-12-18T13:00:12.212Z,79.29
2022-12-18T13:05:34.275Z,79.41
2022-12-18T13:10:46.398Z,79.57
2022-12-18T13:16:11.827Z,79.64
2022-12-18T13:21:30.392Z,79.59
2022-12-18T13:26:40.522Z,79.58
2022-12-18T13:32:25.249Z,79.74
2022-12-18T13:37:55.991Z,79.99
2022-12-18T13:43:16.394Z,80.11
2022-12-18T13:48:30.901Z,80.22
2022-12-18T13:53:49.356Z,80.36
2022-12-18T13:59:24.556Z,80.35
2022-12-18T14:04:37.727Z,80.46
2022-12-18T14:09:53.577Z,80.90
2022-12-18T14:15:29.414Z,81.07
2022-12-18T14:20:46.508Z,81.17
2022-12-18T14:26:05.798Z,81.28
2022-12-18T14:31:25.937Z,81.35
2022-12-18T14:36:35.646Z,81.40
2022-12-18T14:41:46.138Z,81.48
2022-12-18T14:46:57.129Z,81.49
2022-12-18T14:52:20.212Z,81.61
2022-12-18T14:57:39.250Z,81.69
2022-12-18T15:02:52.256Z,81.86
2022-12-18T15:08:04.797Z,81.92
2022-12-18T15:13:27.101Z,81.99
2022-12-18T15:18:49.265Z,81.93
2022-12-18T15:23:59.479Z,81.99
2022-12-18T15:29:21.355Z,81.91
2022-12-18T15:34:31.550Z,81.99
2022-12-18T15:39:41.281Z,81.88
2022-12-18T15:44:51.288Z,81.90
2022-12-18T15:50:01.278Z,81.95
2022-12-18T15:55:33.008Z,81.98
2022-12-18T16:00:44.571Z,82.07
2022-12-18T16:05:57.233Z,82.15
2022-12-18T16:11:18.157Z,82.21
2022-12-18T16:16:29.802Z,82.06
2022-12-18T16:21:41.126Z,81.93
2022-12-18T16:26:52.667Z,81.89
2022-12-18T16:32:04.036Z,81.95
2022-12-18T16:37:17.308Z,82.04
2022-12-18T16:42:27.282Z,82.12
2022-12-18T16:47:38.677Z,82.16
2022-12-18T16:52:48.520Z,82.04
2022-12-18T16:57:58.249Z,82.05
2022-12-18T17:03:08.062Z,82.15
2022-12-18T17:08:18.244Z,82.15
2022-12-18T17:13:31.898Z,82.14
2022-12-18T17:18:41.692Z,82.03
2022-12-18T17:23:51.746Z,82.05
2022-12-18T17:29:03.471Z,82.15
2022-12-18T17:34:14.084Z,82.14
2022-12-18T17:39:25.455Z,82.14
2022-12-18T17:44:35.629Z,81.96
2022-12-18T17:49:45.739Z,82.03
2022-12-18T17:54:55.735Z,82.14
2022-12-18T18:00:06.957Z,82.19
2022-12-18T18:05:17.253Z,82.15
2022-12-18T18:10:27.185Z,82.11
2022-12-18T18:15:37.245Z,81.96
2022-12-18T18:20:49.171Z,82.00
2022-12-18T18:26:03.462Z,82.02
2022-12-18T18:31:15.192Z,81.72
2022-12-18T18:36:25.763Z,81.94
2022-12-18T18:41:35.518Z,81.79
2022-12-18T18:46:45.381Z,81.77
2022-12-18T18:51:55.229Z,81.81
2022-12-18T18:57:20.510Z,81.65
2022-12-18T19:02:32.353Z,81.75
2022-12-18T19:07:42.543Z,81.72
2022-12-18T19:13:09.794Z,81.75
2022-12-18T19:18:20.218Z,81.94
2022-12-18T19:23:31.390Z,81.85
2022-12-18T19:28:42.052Z,81.89
2022-12-18T19:33:52.412Z,81.89
2022-12-18T19:39:09.231Z,81.75
2022-12-18T19:44:20.826Z,81.64
2022-12-18T19:49:31.770Z,81.36
2022-12-18T19:54:42.141Z,80.79
2022-12-18T19:59:51.967Z,81.00
2022-12-18T20:05:01.943Z,81.16
2022-12-18T20:10:17.362Z,81.13
2022-12-18T20:15:28.768Z,81.19
2022-12-18T20:20:38.845Z,81.20
2022-12-18T20:25:50.438Z,81.19
2022-12-18T20:31:06.817Z,81.05
2022-12-18T20:36:25.807Z,80.97
2022-12-18T20:41:37.898Z,81.24
2022-12-18T20:46:49.363Z,81.06
2022-12-18T20:52:03.073Z,80.90
2022-12-18T20:57:13.263Z,80.80
2022-12-18T21:02:23.231Z,80.64
2022-12-18T21:07:33.346Z,80.72
2022-12-18T21:13:01.513Z,79.98
2022-12-18T21:18:13.298Z,80.35
2022-12-18T21:23:23.066Z,80.17
2022-12-18T21:28:32.985Z,80.14
2022-12-18T21:33:45.472Z,80.08
2022-12-18T21:38:58.082Z,80.09
2022-12-18T21:44:08.528Z,80.35
2022-12-18T21:49:21.520Z,80.14
2022-12-18T21:54:32.411Z,79.76
2022-12-18T21:59:44.773Z,79.96
2022-12-18T22:04:54.827Z,80.07
2022-12-18T22:10:06.064Z,80.18
2022-12-18T22:15:21.367Z,80.14
2022-12-18T22:20:32.693Z,80.14
2022-12-18T22:25:42.534Z,80.00
2022-12-18T22:30:54.086Z,80.19
2022-12-18T22:36:13.445Z,80.24
2022-12-18T22:41:24.903Z,80.57
2022-12-18T22:46:38.926Z,80.63
2022-12-18T22:51:50.024Z,80.36
2022-12-18T22:57:00.253Z,80.18
2022-12-18T23:02:09.976Z,80.50
2022-12-18T23:07:20.307Z,80.61
2022-12-18T23:12:30.070Z,80.41
2022-12-18T23:17:40.145Z,80.42
2022-12-18T23:22:50.126Z,80.44
2022-12-18T23:28:00.167Z,80.50
2022-12-18T23:33:09.843Z,80.32
2022-12-18T23:38:20.029Z,80.22
2022-12-18T23:43:30.292Z,80.11
2022-12-18T23:48:40.360Z,80.28
2022-12-18T23:53:50.123Z,80.19
2022-12-18T23:59:00.373Z,80.27
